createdAt,value
2022-12-17T00:01:52.881Z,-2.24
2022-12-17T00:04:39.489Z,-2.17
2022-12-17T00:07:25.262Z,-2.26
2022-12-17T00:10:10.881Z,-2.26
2022-12-17T00:12:56.743Z,-2.23
2022-12-17T00:15:42.600Z,-2.20
2022-12-17T00:18:30.549Z,-2.21
2022-12-17T00:21:18.101Z,-2.24
2022-12-17T00:24:04.693Z,-2.16
2022-12-17T00:27:02.261Z,-2.23
2022-12-17T00:29:50.202Z,-2.21
2022-12-17T00:32:35.953Z,-2.20
2022-12-17T00:35:23.440Z,-2.21
2022-12-17T00:38:09.294Z,-2.26
2022-12-17T00:40:55.597Z,-2.29
2022-12-17T00:43:43.021Z,-2.28
2022-12-17T00:46:25.533Z,-2.30
2022-12-17T00:49:11.130Z,-2.37
2022-12-17T00:51:58.571Z,-2.41
2022-12-17T00:54:44.403Z,-2.43
2022-12-17T00:57:30.484Z,-2.44
2022-12-17T01:00:16.400Z,-2.48
2022-12-17T01:03:02.679Z,-2.48
2022-12-17T01:05:48.502Z,-2.52
2022-12-17T01:08:36.073Z,-2.55
2022-12-17T01:11:24.749Z,-2.60
2022-12-17T01:14:11.794Z,-2.58
2022-12-17T01:16:58.032Z,-2.61
2022-12-17T01:19:44.291Z,-2.54
2022-12-17T01:22:29.918Z,-2.51
2022-12-17T01:25:17.441Z,-2.44
2022-12-17T01:28:07.332Z,-2.50
2022-12-17T01:30:55.089Z,-2.54
2022-12-17T01:33:43.143Z,-2.56
2022-12-17T01:36:29.159Z,-2.67
2022-12-17T01:39:15.112Z,-2.60
2022-12-17T01:42:02.306Z,-2.70
2022-12-17T01:45:05.892Z,-2.66
2022-12-17T01:47:56.509Z,-2.67
2022-12-17T01:50:45.249Z,-2.76
2022-12-17T01:53:33.375Z,-2.92
2022-12-17T01:56:19.388Z,-2.70
2022-12-17T01:59:07.286Z,-2.60
2022-12-17T02:01:53.316Z,-2.66
2022-12-17T02:04:39.317Z,-2.63
2022-12-17T02:07:51.424Z,-2.69
2022-12-17T02:10:43.020Z,-2.72
2022-12-17T02:13:37.141Z,-2.69
2022-12-17T02:16:31.575Z,-2.72
2022-12-17T02:19:22.417Z,-2.70
2022-12-17T02:22:16.317Z,-2.82
2022-12-17T02:25:30.581Z,-3.02
2022-12-17T02:28:18.680Z,-2.98
2022-12-17T02:31:05.104Z,-3.00
2022-12-17T02:33:51.763Z,-3.04
2022-12-17T02:36:37.755Z,-3.02
2022-12-17T02:39:32.177Z,-3.09
2022-12-17T02:42:18.491Z,-3.12
2022-12-17T02:45:05.771Z,-3.06
2022-12-17T02:47:51.475Z,-3.18
2022-12-17T02:50:37.531Z,-3.23
2022-12-17T02:53:23.781Z,-3.28
2022-12-17T02:56:10.036Z,-3.28
2022-12-17T02:58:55.826Z,-3.18
2022-12-17T03:01:43.325Z,-3.30
2022-12-17T03:04:29.446Z,-3.26
2022-12-17T03:07:15.534Z,-3.33
2022-12-17T03:10:01.246Z,-3.22
2022-12-17T03:12:49.485Z,-3.21
2022-12-17T03:15:35.407Z,-3.26
2022-12-17T03:18:23.128Z,-3.24
2022-12-17T03:21:11.824Z,-3.27
2022-12-17T03:23:58.078Z,-3.20
2022-12-17T03:26:43.752Z,-3.24
2022-12-17T03:29:29.926Z,-3.26
2022-12-17T03:32:16.087Z,-3.33
2022-12-17T03:35:03.326Z,-3.30
2022-12-17T03:37:49.061Z,-3.30
2022-12-17T03:40:43.485Z,-3.42
2022-12-17T03:43:33.527Z,-3.35
2022-12-17T03:46:20.286Z,-3.36
2022-12-17T03:49:06.154Z,-3.49
2022-12-17T03:51:53.538Z,-3.39
2022-12-17T03:54:39.268Z,-3.35
2022-12-17T03:57:30.977Z,-3.22
2022-12-17T04:00:16.919Z,-3.22
2022-12-17T04:03:03.283Z,-3.38
2022-12-17T04:05:49.065Z,-3.41
2022-12-17T04:08:36.358Z,-3.33
2022-12-17T04:11:30.485Z,-3.24
2022-12-17T04:14:19.629Z,-3.18
2022-12-17T04:17:05.424Z,-3.16
2022-12-17T04:19:51.312Z,-3.20
2022-12-17T04:22:37.203Z,-3.22
2022-12-17T04:25:25.442Z,-3.25
2022-12-17T04:28:11.275Z,-3.17
2022-12-17T04:30:57.835Z,-3.19
2022-12-17T04:33:44.012Z,-3.12
2022-12-17T04:36:30.021Z,-3.08
2022-12-17T04:39:15.672Z,-3.21
2022-12-17T04:42:03.201Z,-3.13
2022-12-17T04:44:48.829Z,-3.07
2022-12-17T04:47:34.672Z,-3.10
2022-12-17T04:50:20.611Z,-3.04
2022-12-17T04:53:06.873Z,-3.06
2022-12-17T04:55:52.675Z,-3.10
2022-12-17T04:58:40.327Z,-3.20
2022-12-17T05:01:26.171Z,-3.20
2022-12-17T05:04:12.652Z,-3.14
2022-12-17T05:06:58.455Z,-3.15
2022-12-17T05:09:44.617Z,-3.11
2022-12-17T05:12:30.335Z,-3.15
2022-12-17T05:15:17.849Z,-3.14
2022-12-17T05:18:03.861Z,-3.22
2022-12-17T05:20:50.276Z,-3.19
2022-12-17T05:23:36.419Z,-3.14
2022-12-17T05:26:25.286Z,-3.19
2022-12-17T05:29:15.619Z,-3.12
2022-12-17T05:32:03.549Z,-3.07
2022-12-17T05:34:49.387Z,-3.41
2022-12-17T05:37:35.877Z,-3.27
2022-12-17T05:40:22.089Z,-3.31
2022-12-17T05:43:15.241Z,-3.25
2022-12-17T05:46:01.359Z,-3.24
2022-12-17T05:48:49.026Z,-3.34
2022-12-17T05:51:38.657Z,-3.31
2022-12-17T05:54:25.316Z,-3.23
2022-12-17T05:57:11.150Z,-3.21
2022-12-17T05:59:57.499Z,-3.21
2022-12-17T06:02:43.300Z,-3.15
2022-12-17T06:05:30.989Z,-3.07
2022-12-17T06:08:22.204Z,-3.08
2022-12-17T06:11:08.509Z,-3.09
2022-12-17T06:13:54.399Z,-3.17
2022-12-17T06:16:40.427Z,-3.25
2022-12-17T06:19:26.423Z,-3.31
2022-12-17T06:22:13.782Z,-3.32
2022-12-17T06:24:59.455Z,-3.37
2022-12-17T06:27:45.630Z,-3.41
2022-12-17T06:30:31.506Z,-3.38
2022-12-17T06:33:24.956Z,-3.35
2022-12-17T06:36:15.384Z,-3.34
2022-12-17T06:39:07.233Z,-3.33
2022-12-17T06:41:53.072Z,-3.30
2022-12-17T06:44:46.608Z,-3.30
2022-12-17T06:47:32.223Z,-3.27
2022-12-17T06:50:18.239Z,-3.20
2022-12-17T06:53:04.165Z,-3.15
2022-12-17T06:55:51.335Z,-3.14
2022-12-17T06:58:39.094Z,-3.13
2022-12-17T07:01:25.315Z,-3.09
2022-12-17T07:04:11.301Z,-3.03
2022-12-17T07:06:57.473Z,-3.03
2022-12-17T07:09:43.460Z,-2.98
2022-12-17T07:12:30.542Z,-2.97
2022-12-17T07:15:16.384Z,-2.94
2022-12-17T07:18:12.258Z,-2.97
2022-12-17T07:20:58.253Z,-2.97
2022-12-17T07:23:58.946Z,-3.08
2022-12-17T07:26:44.540Z,-3.23
2022-12-17T07:29:31.966Z,-2.86
2022-12-17T07:32:17.490Z,-2.80
2022-12-17T07:35:03.837Z,-2.76
2022-12-17T07:37:49.441Z,-2.72
2022-12-17T07:40:35.339Z,-2.72
2022-12-17T07:43:27.826Z,-2.71
2022-12-17T07:46:15.295Z,-2.63
2022-12-17T07:49:01.104Z,-2.54
2022-12-17T07:51:52.593Z,-2.42
2022-12-17T07:54:38.256Z,-2.35
2022-12-17T07:57:24.855Z,-2.45
2022-12-17T08:00:10.667Z,-2.44
2022-12-17T08:02:58.308Z,-2.33
2022-12-17T08:05:43.999Z,-2.31
2022-12-17T08:08:31.468Z,-2.48
2022-12-17T08:11:17.565Z,-2.33
2022-12-17T08:14:04.223Z,-2.13
2022-12-17T08:16:50.164Z,-2.15
2022-12-17T08:19:37.598Z,-2.11
2022-12-17T08:22:23.507Z,-2.23
2022-12-17T08:25:09.714Z,-2.46
2022-12-17T08:27:55.249Z,-2.61
2022-12-17T08:30:43.785Z,-2.79
2022-12-17T08:33:29.492Z,-2.89
2022-12-17T08:36:19.737Z,-2.94
2022-12-17T08:39:05.793Z,-2.92
2022-12-17T08:41:54.891Z,-2.93
2022-12-17T08:44:42.553Z,-2.95
2022-12-17T08:47:28.681Z,-2.92
2022-12-17T08:50:15.195Z,-2.88
2022-12-17T08:53:02.553Z,-2.75
2022-12-17T08:55:48.780Z,-2.54
2022-12-17T08:58:35.082Z,-2.33
2022-12-17T09:01:21.650Z,-2.22
2022-12-17T09:04:07.877Z,-2.07
2022-12-17T09:06:53.826Z,-1.95
2022-12-17T09:09:52.889Z,-1.90
2022-12-17T09:12:38.660Z,-1.80
2022-12-17T09:15:25.644Z,-1.81
2022-12-17T09:18:11.724Z,-1.81
2022-12-17T09:20:57.866Z,-1.83
2022-12-17T09:23:43.696Z,-1.87
2022-12-17T09:26:31.118Z,-2.00
2022-12-17T09:29:18.429Z,-2.17
2022-12-17T09:32:08.482Z,-2.24
2022-12-17T09:34:54.335Z,-2.25
2022-12-17T09:37:40.706Z,-2.38
2022-12-17T09:40:33.900Z,-2.21
2022-12-17T09:43:25.274Z,-2.15
2022-12-17T09:46:19.556Z,-2.20
2022-12-17T09:49:18.592Z,-2.13
2022-12-17T09:52:04.782Z,-2.11
2022-12-17T09:55:00.849Z,-2.02
2022-12-17T09:57:50.651Z,-1.97
2022-12-17T10:00:41.240Z,-1.73
2022-12-17T10:03:30.874Z,-1.51
2022-12-17T10:06:22.676Z,-1.31
2022-12-17T10:09:12.807Z,-1.26
2022-12-17T10:11:59.095Z,-1.20
2022-12-17T10:14:45.255Z,-1.17
2022-12-17T10:17:40.880Z,-1.07
2022-12-17T10:20:39.655Z,-1.06
2022-12-17T10:23:25.772Z,-1.04
2022-12-17T10:26:13.070Z,-1.06
2022-12-17T10:28:59.773Z,-1.02
2022-12-17T10:31:49.302Z,-1.00
2022-12-17T10:34:38.661Z,-0.93
2022-12-17T10:37:25.431Z,-0.85
2022-12-17T10:40:15.517Z,-0.84
2022-12-17T10:43:02.699Z,-0.82
2022-12-17T10:45:50.945Z,-0.82
2022-12-17T10:48:40.007Z,-0.89
2022-12-17T10:51:51.633Z,-0.87
2022-12-17T10:54:48.798Z,-0.88
2022-12-17T10:57:49.143Z,-0.87
2022-12-17T11:00:45.825Z,-0.92
2022-12-17T11:03:47.260Z,-0.87
2022-12-17T11:06:42.549Z,-0.94
2022-12-17T11:09:49.965Z,-0.89
2022-12-17T11:12:38.712Z,-0.92
2022-12-17T11:15:34.279Z,-0.83
2022-12-17T11:18:20.941Z,-0.73
2022-12-17T11:21:13.596Z,-0.74
2022-12-17T11:24:03.299Z,-0.65
2022-12-17T11:26:52.480Z,-0.70
2022-12-17T11:29:38.235Z,-0.75
2022-12-17T11:33:06.461Z,-0.75
2022-12-17T11:35:59.258Z,-0.87
2022-12-17T11:38:54.678Z,-1.05
2022-12-17T11:42:15.032Z,-1.10
2022-12-17T11:45:12.411Z,-1.01
2022-12-17T11:48:04.243Z,-0.93
2022-12-17T11:50:58.118Z,-1.02
2022-12-17T11:54:08.691Z,-0.71
2022-12-17T11:57:00.377Z,-0.64
2022-12-17T11:59:54.946Z,-0.60
2022-12-17T12:03:07.685Z,-0.52
2022-12-17T12:06:05.725Z,-0.78
2022-12-17T12:08:56.020Z,-0.57
2022-12-17T12:11:49.277Z,-0.58
2022-12-17T12:14:51.885Z,-0.62
2022-12-17T12:17:56.497Z,-0.60
2022-12-17T12:23:02.959Z,-0.61
2022-12-17T12:25:58.693Z,-0.92
2022-12-17T12:28:53.480Z,-0.84
2022-12-17T12:32:04.684Z,-0.53
2022-12-17T12:34:55.434Z,-0.58
2022-12-17T12:37:42.666Z,-0.73
2022-12-17T12:40:40.011Z,-0.66
2022-12-17T12:43:33.892Z,-0.70
2022-12-17T12:46:27.154Z,-0.87
2022-12-17T12:49:19.449Z,-0.76
2022-12-17T12:52:06.592Z,-0.86
2022-12-17T12:55:11.969Z,-0.69
2022-12-17T12:58:02.242Z,-0.74
2022-12-17T13:00:56.758Z,-0.88
2022-12-17T13:03:47.121Z,-0.71
2022-12-17T13:06:37.979Z,-0.71
2022-12-17T13:09:07.623Z,-1.02
2022-12-17T13:11:39.535Z,-0.70
2022-12-17T13:14:17.089Z,-1.06
2022-12-17T13:16:54.433Z,-0.78
2022-12-17T13:19:36.146Z,-0.77
2022-12-17T13:22:30.124Z,-1.10
2022-12-17T13:25:16.479Z,-0.95
2022-12-17T13:27:45.457Z,-0.94
2022-12-17T13:30:24.389Z,-1.00
2022-12-17T13:33:04.520Z,-1.00
2022-12-17T13:35:42.231Z,-0.95
2022-12-17T13:38:21.723Z,-1.02
2022-12-17T13:41:08.117Z,-1.36
2022-12-17T13:43:43.591Z,-1.14
2022-12-17T13:46:25.332Z,-1.06
2022-12-17T13:48:56.349Z,-1.08
2022-12-17T13:51:26.981Z,-1.13
2022-12-17T13:53:57.569Z,-1.11
2022-12-17T13:56:29.088Z,-1.14
2022-12-17T13:59:08.482Z,-1.47
2022-12-17T14:01:47.899Z,-1.26
2022-12-17T14:04:24.550Z,-1.20
2022-12-17T14:06:56.097Z,-1.23
2022-12-17T14:09:35.217Z,-1.24
2022-12-17T14:12:23.883Z,-1.31
2022-12-17T14:14:57.051Z,-1.36
2022-12-17T14:17:29.969Z,-1.34
2022-12-17T14:20:01.449Z,-1.42
2022-12-17T14:22:36.266Z,-1.35
2022-12-17T14:25:07.245Z,-1.33
2022-12-17T14:27:37.582Z,-1.53
2022-12-17T14:30:22.927Z,-1.44
2022-12-17T14:32:53.668Z,-1.39
2022-12-17T14:35:27.784Z,-1.43
2022-12-17T14:37:57.423Z,-1.42
2022-12-17T14:40:28.014Z,-1.48
2022-12-17T14:43:01.422Z,-1.50
2022-12-17T14:45:30.544Z,-1.56
2022-12-17T14:48:04.386Z,-1.50
2022-12-17T14:50:35.252Z,-1.51
2022-12-17T14:53:25.003Z,-1.49
2022-12-17T14:55:56.226Z,-1.52
2022-12-17T14:58:26.370Z,-1.48
2022-12-17T15:00:58.857Z,-1.49
2022-12-17T15:03:30.201Z,-1.52
2022-12-17T15:06:02.381Z,-1.57
2022-12-17T15:08:33.756Z,-1.72
2022-12-17T15:11:02.804Z,-1.57
2022-12-17T15:13:31.463Z,-1.43
2022-12-17T15:16:00.214Z,-1.56
2022-12-17T15:18:30.019Z,-1.51
2022-12-17T15:20:58.983Z,-1.51
2022-12-17T15:23:27.325Z,-1.61
2022-12-17T15:25:56.460Z,-1.55
2022-12-17T15:28:24.972Z,-1.55
2022-12-17T15:30:53.754Z,-1.55
2022-12-17T15:33:22.276Z,-1.57
2022-12-17T15:35:52.574Z,-1.62
2022-12-17T15:38:21.119Z,-1.63
2022-12-17T15:40:49.660Z,-1.67
2022-12-17T15:43:16.867Z,-1.71
2022-12-17T15:45:47.179Z,-1.96
2022-12-17T15:48:18.939Z,-1.72
2022-12-17T15:50:48.570Z,-1.77
2022-12-17T15:53:18.307Z,-1.71
2022-12-17T15:55:46.824Z,-1.69
2022-12-17T15:58:16.249Z,-1.70
2022-12-17T16:00:46.330Z,-1.77
2022-12-17T16:03:14.719Z,-1.81
2022-12-17T16:05:43.407Z,-1.86
2022-12-17T16:08:11.698Z,-1.93
2022-12-17T16:10:42.049Z,-1.94
2022-12-17T16:13:10.716Z,-1.95
2022-12-17T16:15:39.367Z,-2.01
2022-12-17T16:18:07.683Z,-2.13
2022-12-17T16:20:36.254Z,-2.04
2022-12-17T16:23:04.584Z,-2.02
2022-12-17T16:25:33.599Z,-2.10
2022-12-17T16:28:03.331Z,-2.15
2022-12-17T16:30:31.894Z,-2.15
2022-12-17T16:33:00.389Z,-2.22
2022-12-17T16:35:29.697Z,-2.38
2022-12-17T16:37:58.090Z,-2.38
2022-12-17T16:40:26.684Z,-2.38
2022-12-17T16:42:54.941Z,-2.41
2022-12-17T16:45:24.897Z,-2.47
2022-12-17T16:47:53.150Z,-2.52
2022-12-17T16:50:21.839Z,-2.58
2022-12-17T16:52:51.197Z,-2.64
2022-12-17T16:55:19.937Z,-2.65
2022-12-17T16:57:48.269Z,-2.65
2022-12-17T17:00:18.175Z,-2.68
2022-12-17T17:02:52.974Z,-2.72
2022-12-17T17:05:22.285Z,-2.77
2022-12-17T17:07:52.244Z,-2.83
2022-12-17T17:10:20.924Z,-2.86
2022-12-17T17:12:49.200Z,-2.88
2022-12-17T17:15:17.857Z,-2.89
2022-12-17T17:17:53.940Z,-3.30
2022-12-17T17:20:27.133Z,-2.95
2022-12-17T17:22:55.385Z,-2.96
2022-12-17T17:25:34.676Z,-2.99
2022-12-17T17:28:14.611Z,-3.03
2022-12-17T17:30:43.312Z,-3.10
2022-12-17T17:33:12.972Z,-3.14
2022-12-17T17:35:42.503Z,-3.08
2022-12-17T17:38:11.167Z,-3.16
2022-12-17T17:40:39.947Z,-3.21
2022-12-17T17:43:08.217Z,-3.32
2022-12-17T17:45:36.800Z,-3.39
2022-12-17T17:48:05.291Z,-3.38
2022-12-17T17:50:35.343Z,-3.44
2022-12-17T17:53:04.235Z,-3.47
2022-12-17T17:55:35.853Z,-3.43
2022-12-17T17:58:04.525Z,-3.45
2022-12-17T18:00:33.240Z,-3.45
2022-12-17T18:03:04.076Z,-3.46
2022-12-17T18:05:36.983Z,-3.49
2022-12-17T18:08:09.977Z,-3.48
2022-12-17T18:10:38.586Z,-3.51
2022-12-17T18:13:24.883Z,-3.51
2022-12-17T18:15:53.841Z,-3.58
2022-12-17T18:18:22.579Z,-3.53
2022-12-17T18:20:51.148Z,-3.49
2022-12-17T18:23:20.924Z,-3.51
2022-12-17T18:25:49.481Z,-3.51
2022-12-17T18:28:17.759Z,-3.47
2022-12-17T18:30:46.710Z,-3.52
2022-12-17T18:33:15.026Z,-3.49
2022-12-17T18:35:46.198Z,-3.53
2022-12-17T18:38:14.821Z,-3.43
2022-12-17T18:40:45.066Z,-3.45
2022-12-17T18:43:25.897Z,-3.43
2022-12-17T18:45:54.485Z,-3.42
2022-12-17T18:48:23.146Z,-3.39
2022-12-17T18:50:51.723Z,-3.34
2022-12-17T18:53:20.299Z,-3.39
2022-12-17T18:55:50.556Z,-3.34
2022-12-17T18:58:19.125Z,-3.40
2022-12-17T19:00:49.299Z,-3.33
2022-12-17T19:03:20.454Z,-3.32
2022-12-17T19:05:54.324Z,-3.30
2022-12-17T19:08:23.033Z,-3.33
2022-12-17T19:10:58.318Z,-3.39
2022-12-17T19:13:26.588Z,-3.49
2022-12-17T19:15:55.195Z,-3.37
2022-12-17T19:18:23.833Z,-3.43
2022-12-17T19:20:58.238Z,-3.41
2022-12-17T19:23:33.081Z,-3.38
2022-12-17T19:26:20.649Z,-3.38
2022-12-17T19:28:51.215Z,-3.40
2022-12-17T19:31:22.302Z,-3.39
2022-12-17T19:33:55.314Z,-3.39
2022-12-17T19:36:28.421Z,-3.36
2022-12-17T19:38:59.491Z,-3.38
2022-12-17T19:41:31.968Z,-3.53
2022-12-17T19:44:01.418Z,-3.40
2022-12-17T19:46:32.509Z,-3.41
2022-12-17T19:49:02.828Z,-3.44
2022-12-17T19:51:32.625Z,-3.45
2022-12-17T19:54:07.996Z,-3.70
2022-12-17T19:56:39.871Z,-3.48
2022-12-17T19:59:09.290Z,-3.56
2022-12-17T20:01:41.087Z,-3.63
2022-12-17T20:04:12.289Z,-3.73
2022-12-17T20:06:40.881Z,-3.82
2022-12-17T20:09:09.327Z,-3.82
2022-12-17T20:11:40.353Z,-3.93
2022-12-17T20:14:12.122Z,-4.00
2022-12-17T20:16:43.108Z,-4.06
2022-12-17T20:19:15.771Z,-4.06
2022-12-17T20:21:44.927Z,-4.05
2022-12-17T20:24:13.930Z,-4.19
2022-12-17T20:26:47.170Z,-3.97
2022-12-17T20:29:15.912Z,-3.95
2022-12-17T20:31:49.587Z,-4.05
2022-12-17T20:34:24.097Z,-4.03
2022-12-17T20:36:55.113Z,-3.99
2022-12-17T20:39:27.618Z,-4.04
2022-12-17T20:41:58.555Z,-4.04
2022-12-17T20:44:28.924Z,-4.12
2022-12-17T20:46:58.594Z,-4.18
2022-12-17T20:49:27.356Z,-4.21
2022-12-17T20:51:56.460Z,-4.24
2022-12-17T20:54:25.704Z,-4.34
2022-12-17T20:56:54.442Z,-4.43
2022-12-17T20:59:24.287Z,-4.47
2022-12-17T21:01:56.266Z,-4.50
2022-12-17T21:04:26.110Z,-4.70
2022-12-17T21:06:57.328Z,-4.81
2022-12-17T21:09:26.653Z,-4.66
2022-12-17T21:11:55.229Z,-4.70
2022-12-17T21:14:29.168Z,-4.80
2022-12-17T21:17:01.237Z,-4.85
2022-12-17T21:19:33.534Z,-4.86
2022-12-17T21:22:02.484Z,-4.99
2022-12-17T21:24:31.047Z,-5.02
2022-12-17T21:27:01.160Z,-5.09
2022-12-17T21:29:31.342Z,-5.19
2022-12-17T21:32:00.020Z,-5.30
2022-12-17T21:34:29.309Z,-5.31
2022-12-17T21:36:57.977Z,-5.40
2022-12-17T21:39:26.331Z,-5.43
2022-12-17T21:42:12.627Z,-5.43
2022-12-17T21:44:42.717Z,-5.48
2022-12-17T21:47:11.445Z,-5.47
2022-12-17T21:49:39.835Z,-5.45
2022-12-17T21:52:11.293Z,-5.58
2022-12-17T21:54:40.392Z,-5.51
2022-12-17T21:57:09.524Z,-5.64
2022-12-17T21:59:38.201Z,-5.62
2022-12-17T22:02:08.602Z,-5.59
2022-12-17T22:04:37.209Z,-5.65
2022-12-17T22:07:15.038Z,-5.63
2022-12-17T22:09:58.621Z,-5.44
2022-12-17T22:12:57.926Z,-5.41
2022-12-17T22:15:27.988Z,-5.37
2022-12-17T22:18:03.575Z,-5.32
2022-12-17T22:20:31.885Z,-5.34
2022-12-17T22:23:00.695Z,-5.54
2022-12-17T22:25:29.235Z,-5.33
2022-12-17T22:27:57.784Z,-5.34
2022-12-17T22:30:43.642Z,-5.35
2022-12-17T22:33:43.377Z,-5.28
2022-12-17T22:38:12.331Z,-5.38
2022-12-17T22:42:19.635Z,-5.27
2022-12-17T22:44:30.261Z,-5.27
2022-12-17T22:44:53.113Z,-5.42
2022-12-17T22:47:22.942Z,-5.44
2022-12-17T22:49:52.958Z,-5.49
2022-12-17T22:52:21.881Z,-5.50
2022-12-17T22:54:51.307Z,-5.50
2022-12-17T22:57:37.657Z,-5.48
2022-12-17T23:00:15.890Z,-5.51
2022-12-17T23:02:44.532Z,-5.62
2022-12-17T23:05:14.736Z,-5.70
2022-12-17T23:07:43.154Z,-5.81
2022-12-17T23:10:12.215Z,-5.84
2022-12-17T23:13:02.030Z,-5.85
2022-12-17T23:15:34.468Z,-5.91
2022-12-17T23:18:04.725Z,-5.94
2022-12-17T23:20:36.264Z,-6.03
2022-12-17T23:23:04.824Z,-6.07
2022-12-17T23:25:33.418Z,-6.13
2022-12-17T23:28:01.709Z,-6.12
2022-12-17T23:30:30.298Z,-6.14
2022-12-17T23:32:58.768Z,-6.13
2022-12-17T23:35:27.386Z,-6.19
2022-12-17T23:37:57.419Z,-6.29
2022-12-17T23:40:26.181Z,-6.31
2022-12-17T23:42:54.508Z,-6.33
2022-12-17T23:45:23.558Z,-6.29
2022-12-17T23:47:51.917Z,-6.24
2022-12-17T23:50:20.507Z,-6.15
2022-12-17T23:52:48.748Z,-6.06
2022-12-17T23:55:19.230Z,-6.04
2022-12-17T23:57:47.908Z,-6.06
